Time,TemperatureF,DewpointF,PressureIn,WindDirection,WindDirectionDegrees,WindSpeedMPH,WindSpeedGustMPH,Humidity,HourlyPrecipIn,Conditions,Clouds,dailyrainin,SoftwareType,DateUTC
2013-04-16 00:11:00,44.8,34.1,29.99,North,359,0.0,1.0,66,0.00,,---,0.00,VWS V14.01,2013-04-16 07:11:00,
2013-04-16 00:21:00,45.1,34.4,29.99,NW,321,0.0,1.0,66,0.00,,---,0.00,VWS V14.01,2013-04-16 07:21:00,
2013-04-16 00:29:00,45.2,34.1,29.99,NW,321,0.0,1.0,65,0.00,,---,0.00,VWS V14.01,2013-04-16 07:29:00,
2013-04-16 00:41:00,45.2,34.5,30.00,NW,325,0.0,1.0,66,0.00,,---,0.00,VWS V14.01,2013-04-16 07:41:00,
2013-04-16 00:51:00,45.1,34.0,30.00,North,359,0.0,1.0,65,0.00,,---,0.00,VWS V14.01,2013-04-16 07:51:00,
2013-04-16 00:59:00,44.8,35.2,30.00,North,359,0.0,1.0,69,0.00,,---,0.00,VWS V14.01,2013-04-16 07:59:00,
2013-04-16 01:11:00,44.5,34.2,30.00,North,359,0.0,0.0,67,0.00,,---,0.00,VWS V14.01,2013-04-16 08:11:00,
2013-04-16 01:21:00,44.3,34.4,30.01,North,357,0.0,1.0,68,0.00,,---,0.00,VWS V14.01,2013-04-16 08:21:00,
2013-04-16 01:29:00,44.3,34.0,30.01,North,350,0.0,1.0,67,0.00,,---,0.00,VWS V14.01,2013-04-16 08:29:00,
2013-04-16 01:41:00,44.5,34.2,30.01,North,350,0.0,1.0,67,0.00,,---,0.00,VWS V14.01,2013-04-16 08:41:00,
2013-04-16 01:51:00,44.3,34.0,30.01,North,350,0.0,0.0,67,0.00,,---,0.00,VWS V14.01,2013-04-16 08:51:00,
2013-04-16 01:59:00,44.2,34.3,30.01,North,350,0.0,0.0,68,0.00,,---,0.00,VWS V14.01,2013-04-16 08:59:00,
2013-04-16 02:11:00,44.0,34.1,30.01,North,352,0.0,1.0,68,0.00,,---,0.00,VWS V14.01,2013-04-16 09:11:00,
2013-04-16 02:21:00,43.8,34.3,30.01,North,352,0.0,0.0,69,0.00,,---,0.00,VWS V14.01,2013-04-16 09:21:00,
2013-04-16 02:29:00,43.8,33.9,30.01,North,352,0.0,0.0,68,0.00,,---,0.00,VWS V14.01,2013-04-16 09:29:00,
2013-04-16 02:41:00,43.6,34.5,30.01,North,352,0.0,1.0,70,0.00,,---,0.00,VWS V14.01,2013-04-16 09:41:00,
2013-04-16 02:51:00,43.9,34.0,30.01,NW,325,0.0,1.0,68,0.00,,---,0.00,VWS V14.01,2013-04-16 09:51:00,
2013-04-16 02:59:00,44.2,33.9,30.01,NNW,333,0.0,2.0,67,0.00,,---,0.00,VWS V14.01,2013-04-16 09:59:00,
2013-04-16 03:11:00,43.8,35.0,30.01,NNW,333,0.0,0.0,71,0.00,,---,0.00,VWS V14.01,2013-04-16 10:11:00,
2013-04-16 03:21:00,43.4,33.9,30.02,NNW,333,0.0,0.0,69,0.00,,---,0.00,VWS V14.01,2013-04-16 10:21:00,
2013-04-16 03:29:00,43.7,33.8,30.01,NW,323,0.0,1.0,68,0.00,,---,0.00,VWS V14.01,2013-04-16 10:29:00,
2013-04-16 03:41:00,44.0,35.9,30.01,North,353,0.0,1.0,73,0.00,,---,0.00,VWS V14.01,2013-04-16 10:41:00,
2013-04-16 03:51:00,42.8,35.4,30.02,ENE,63,0.0,1.0,75,0.00,,---,0.00,VWS V14.01,2013-04-16 10:51:00,
2013-04-16 03:59:00,42.5,34.8,30.02,ENE,63,0.0,0.0,74,0.00,,---,0.00,VWS V14.01,2013-04-16 10:59:00,
2013-04-16 04:11:00,42.4,34.4,30.02,ENE,63,0.0,0.0,73,0.00,,---,0.00,VWS V14.01,2013-04-16 11:11:00,
2013-04-16 04:21:00,42.5,34.5,30.03,NNE,23,0.0,1.0,73,0.00,,---,0.00,VWS V14.01,2013-04-16 11:21:00,
2013-04-16 04:29:00,42.5,34.5,30.02,NNE,19,0.0,1.0,73,0.00,,---,0.00,VWS V14.01,2013-04-16 11:29:00,
2013-04-16 04:41:00,42.3,35.9,30.03,NNE,19,0.0,0.0,78,0.00,,---,0.00,VWS V14.01,2013-04-16 11:41:00,
2013-04-16 04:51:00,41.6,35.6,30.03,NNE,19,0.0,0.0,79,0.00,,---,0.00,VWS V14.01,2013-04-16 11:51:00,
2013-04-16 04:59:00,41.3,35.3,30.03,North,4,0.0,1.0,79,0.00,,---,0.00,VWS V14.01,2013-04-16 11:59:00,
2013-04-16 05:11:00,40.4,35.6,30.04,North,4,0.0,1.0,83,0.00,,---,0.00,VWS V14.01,2013-04-16 12:11:00,
2013-04-16 05:21:00,39.8,35.3,30.04,North,4,0.0,1.0,84,0.00,,---,0.00,VWS V14.01,2013-04-16 12:21:00,
2013-04-16 05:29:00,39.9,34.5,30.04,North,4,0.0,0.0,81,0.00,,---,0.00,VWS V14.01,2013-04-16 12:29:00,
2013-04-16 05:41:00,39.7,35.0,30.05,NE,51,0.0,1.0,83,0.00,,---,0.00,VWS V14.01,2013-04-16 12:41:00,
2013-04-16 05:51:00,39.4,34.4,30.05,NE,51,0.0,1.0,82,0.00,,---,0.00,VWS V14.01,2013-04-16 12:51:00,
2013-04-16 05:59:00,39.6,34.5,30.05,NE,51,0.0,0.0,82,0.00,,---,0.00,VWS V14.01,2013-04-16 12:59:00,
2013-04-16 06:11:00,39.0,35.2,30.06,North,352,0.0,0.0,86,0.00,,---,0.00,VWS V14.01,2013-04-16 13:11:00,
2013-04-16 06:21:00,38.9,34.8,30.06,North,353,0.0,1.0,85,0.00,,---,0.00,VWS V14.01,2013-04-16 13:21:00,
2013-04-16 06:29:00,39.1,35.0,30.06,North,353,0.0,1.0,85,0.00,,---,0.00,VWS V14.01,2013-04-16 13:29:00,
2013-04-16 06:41:00,38.6,35.1,30.07,NNE,32,0.0,1.0,87,0.00,,---,0.00,VWS V14.01,2013-04-16 13:41:00,
2013-04-16 06:51:00,38.5,34.1,30.07,NNE,32,0.0,1.0,84,0.00,,---,0.00,VWS V14.01,2013-04-16 13:51:00,
2013-04-16 06:59:00,38.8,35.0,30.07,NNE,32,0.0,0.0,86,0.00,,---,0.00,VWS V14.01,2013-04-16 13:59:00,
2013-04-16 07:11:00,38.1,34.3,30.08,NNE,30,0.0,0.0,86,0.00,,---,0.00,VWS V14.01,2013-04-16 14:11:00,
2013-04-16 07:21:00,38.2,34.4,30.08,NNE,30,0.0,0.0,86,0.00,,---,0.00,VWS V14.01,2013-04-16 14:21:00,
2013-04-16 07:29:00,38.5,34.7,30.09,NNE,31,0.0,0.0,86,0.00,,---,0.00,VWS V14.01,2013-04-16 14:29:00,
2013-04-16 07:41:00,38.8,35.3,30.09,NNE,18,0.0,0.0,87,0.00,,---,0.00,VWS V14.01,2013-04-16 14:41:00,
2013-04-16 07:51:00,39.3,35.8,30.09,NNE,18,0.0,1.0,87,0.00,,---,0.00,VWS V14.01,2013-04-16 14:51:00,
2013-04-16 08:00:00,39.8,36.2,30.09,NNE,18,0.0,0.0,87,0.00,,---,0.00,VWS V14.01,2013-04-16 15:00:00,
2013-04-16 08:11:00,40.7,36.8,30.09,NNE,18,1.0,1.0,86,0.00,,---,0.00,VWS V14.01,2013-04-16 15:11:00,
2013-04-16 08:21:00,41.3,36.8,30.09,NNE,16,0.0,1.0,84,0.00,,---,0.00,VWS V14.01,2013-04-16 15:21:00,
2013-04-16 08:30:00,41.9,36.8,30.10,NNE,16,0.0,0.0,82,0.00,,---,0.00,VWS V14.01,2013-04-16 15:30:00,
2013-04-16 08:41:00,43.3,37.5,30.09,NNW,346,0.0,0.0,80,0.00,,---,0.00,VWS V14.01,2013-04-16 15:41:00,
2013-04-16 08:51:00,44.5,37.1,30.09,NNW,346,0.0,0.0,75,0.00,,---,0.00,VWS V14.01,2013-04-16 15:51:00,
2013-04-16 09:00:00,45.3,36.5,30.10,NNW,345,1.0,1.0,71,0.00,,---,0.00,VWS V14.01,2013-04-16 16:00:00,
2013-04-16 09:11:00,46.8,39.0,30.10,NNW,340,0.0,1.0,74,0.00,,---,0.00,VWS V14.01,2013-04-16 16:11:00,
2013-04-16 09:21:00,48.0,37.2,30.10,NNW,340,0.0,0.0,66,0.00,,---,0.00,VWS V14.01,2013-04-16 16:21:00,
2013-04-16 09:30:00,49.3,37.6,30.10,NNW,341,0.0,1.0,64,0.00,,---,0.00,VWS V14.01,2013-04-16 16:30:00,
2013-04-16 09:41:00,51.6,31.5,30.10,NW,316,0.0,2.0,46,0.00,,---,0.00,VWS V14.01,2013-04-16 16:41:00,
2013-04-16 09:51:00,52.8,32.6,30.10,NNW,338,0.0,3.0,46,0.00,,---,0.00,VWS V14.01,2013-04-16 16:51:00,
2013-04-16 10:00:00,53.4,32.6,30.10,NW,319,0.0,1.0,45,0.00,,---,0.00,VWS V14.01,2013-04-16 17:00:00,
2013-04-16 10:12:00,54.4,32.9,30.10,NW,324,2.0,2.0,44,0.00,,---,0.00,VWS V14.01,2013-04-16 17:12:00,
2013-04-16 10:21:00,54.8,30.9,30.10,NW,325,1.0,2.0,40,0.00,,---,0.00,VWS V14.01,2013-04-16 17:21:00,
2013-04-16 10:30:00,55.3,30.1,30.10,NW,311,0.0,3.0,38,0.00,,---,0.00,VWS V14.01,2013-04-16 17:30:00,
2013-04-16 10:41:00,56.3,28.3,30.10,NW,321,0.0,3.0,34,0.00,,---,0.00,VWS V14.01,2013-04-16 17:41:00,
2013-04-16 10:51:00,56.5,28.5,30.09,North,356,0.0,3.0,34,0.00,,---,0.00,VWS V14.01,2013-04-16 17:51:00,
2013-04-16 11:00:00,56.8,28.0,30.10,North,350,1.0,2.0,33,0.00,,---,0.00,VWS V14.01,2013-04-16 18:00:00,
2013-04-16 11:11:00,57.5,25.5,30.09,WNW,302,1.0,5.0,29,0.00,,---,0.00,VWS V14.01,2013-04-16 18:11:00,
2013-04-16 11:21:00,58.1,24.3,30.09,NNW,330,0.0,3.0,27,0.00,,---,0.00,VWS V14.01,2013-04-16 18:21:00,
2013-04-16 11:30:00,58.5,26.3,30.09,NW,326,0.0,3.0,29,0.00,,---,0.00,VWS V14.01,2013-04-16 18:30:00,
2013-04-16 11:42:00,58.6,26.4,30.09,NW,325,0.0,3.0,29,0.00,,---,0.00,VWS V14.01,2013-04-16 18:42:00,
2013-04-16 11:51:00,59.1,25.1,30.09,NNW,333,1.0,3.0,27,0.00,,---,0.00,VWS V14.01,2013-04-16 18:51:00,
2013-04-16 12:00:00,59.3,24.4,30.09,NNW,331,0.0,2.0,26,0.00,,---,0.00,VWS V14.01,2013-04-16 19:00:00,
2013-04-16 12:11:00,59.7,24.7,30.08,NNW,328,1.0,4.0,26,0.00,,---,0.00,VWS V14.01,2013-04-16 19:11:00,
2013-04-16 12:21:00,60.4,28.8,30.08,East,85,2.0,3.0,30,0.00,,---,0.00,VWS V14.01,2013-04-16 19:21:00,
2013-04-16 12:30:00,61.0,30.9,30.08,NNW,347,0.0,3.0,32,0.00,,---,0.00,VWS V14.01,2013-04-16 19:30:00,
2013-04-16 12:41:00,60.7,36.2,30.07,SSE,157,0.0,3.0,40,0.00,,---,0.00,VWS V14.01,2013-04-16 19:41:00,
2013-04-16 12:51:00,61.0,36.5,30.07,NNW,342,0.0,3.0,40,0.00,,---,0.00,VWS V14.01,2013-04-16 19:51:00,
2013-04-16 13:00:00,61.2,33.3,30.07,NNW,343,0.0,1.0,35,0.00,,---,0.00,VWS V14.01,2013-04-16 20:00:00,
2013-04-16 13:11:00,61.2,31.9,30.07,NNW,336,0.0,3.0,33,0.00,,---,0.00,VWS V14.01,2013-04-16 20:11:00,
2013-04-16 13:21:00,61.7,33.8,30.06,NNE,19,1.0,2.0,35,0.00,,---,0.00,VWS V14.01,2013-04-16 20:21:00,
2013-04-16 13:30:00,61.8,34.5,30.06,NW,322,1.0,3.0,36,0.00,,---,0.00,VWS V14.01,2013-04-16 20:30:00,
2013-04-16 13:41:00,62.3,37.7,30.06,East,99,4.0,4.0,40,0.00,,---,0.00,VWS V14.01,2013-04-16 20:41:00,
2013-04-16 13:51:00,62.3,37.0,30.06,ESE,111,2.0,4.0,39,0.00,,---,0.00,VWS V14.01,2013-04-16 20:51:00,
2013-04-16 14:00:00,62.3,35.0,30.05,South,171,0.0,5.0,36,0.00,,---,0.00,VWS V14.01,2013-04-16 21:00:00,
2013-04-16 14:11:00,62.4,38.4,30.05,SSE,163,1.0,3.0,41,0.00,,---,0.00,VWS V14.01,2013-04-16 21:11:00,
2013-04-16 14:21:00,62.7,35.3,30.06,NNW,330,0.0,1.0,36,0.00,,---,0.00,VWS V14.01,2013-04-16 21:21:00,
2013-04-16 14:30:00,62.8,36.8,30.05,ESE,122,0.0,3.0,38,0.00,,---,0.00,VWS V14.01,2013-04-16 21:30:00,
2013-04-16 14:41:00,63.3,34.4,30.05,West,260,0.0,4.0,34,0.00,,---,0.00,VWS V14.01,2013-04-16 21:41:00,
2013-04-16 14:51:00,63.7,34.0,30.05,SW,219,1.0,2.0,33,0.00,,---,0.00,VWS V14.01,2013-04-16 21:51:00,
2013-04-16 15:00:00,63.4,31.4,30.05,ENE,76,1.0,2.0,30,0.00,,---,0.00,VWS V14.01,2013-04-16 22:00:00,
2013-04-16 15:11:00,63.9,35.7,30.05,NE,46,0.0,1.0,35,0.00,,---,0.00,VWS V14.01,2013-04-16 22:11:00,
2013-04-16 15:21:00,64.0,36.5,30.04,North,355,0.0,2.0,36,0.00,,---,0.00,VWS V14.01,2013-04-16 22:21:00,
2013-04-16 15:30:00,64.3,38.1,30.04,SSE,153,1.0,4.0,38,0.00,,---,0.00,VWS V14.01,2013-04-16 22:30:00,
2013-04-16 15:41:00,64.7,34.9,30.04,WNW,300,1.0,3.0,33,0.00,,---,0.00,VWS V14.01,2013-04-16 22:41:00,
2013-04-16 15:51:00,64.6,35.6,30.04,South,184,2.0,3.0,34,0.00,,---,0.00,VWS V14.01,2013-04-16 22:51:00,
2013-04-16 16:00:00,64.3,36.8,30.04,West,261,0.0,2.0,36,0.00,,---,0.00,VWS V14.01,2013-04-16 23:00:00,
2013-04-16 16:11:00,63.4,33.8,30.04,NW,320,0.0,3.0,33,0.00,,---,0.00,VWS V14.01,2013-04-16 23:11:00,
2013-04-16 16:21:00,63.7,35.5,30.04,NNW,346,0.0,1.0,35,0.00,,---,0.00,VWS V14.01,2013-04-16 23:21:00,
2013-04-16 16:30:00,63.3,34.4,30.04,NW,308,0.0,3.0,34,0.00,,---,0.00,VWS V14.01,2013-04-16 23:30:00,
2013-04-16 16:41:00,63.3,32.9,30.04,NNW,333,3.0,4.0,32,0.00,,---,0.00,VWS V14.01,2013-04-16 23:41:00,
2013-04-16 16:51:00,63.2,32.8,30.04,NW,315,0.0,4.0,32,0.00,,---,0.00,VWS V14.01,2013-04-16 23:51:00,
2013-04-16 17:00:00,63.3,35.2,30.04,NNW,342,2.0,2.0,35,0.00,,---,0.00,VWS V14.01,2013-04-17 00:00:00,
2013-04-16 17:11:00,63.3,34.4,30.04,NNW,331,0.0,2.0,34,0.00,,---,0.00,VWS V14.01,2013-04-17 00:11:00,
2013-04-16 17:21:00,63.2,37.2,30.04,North,356,0.0,4.0,38,0.00,,---,0.00,VWS V14.01,2013-04-17 00:21:00,
2013-04-16 17:30:00,63.1,33.5,30.04,NNW,327,2.0,5.0,33,0.00,,---,0.00,VWS V14.01,2013-04-17 00:30:00,
2013-04-16 17:41:00,63.3,36.6,30.05,NW,322,0.0,3.0,37,0.00,,---,0.00,VWS V14.01,2013-04-17 00:41:00,
2013-04-16 17:52:00,63.2,36.5,30.05,NNW,331,0.0,3.0,37,0.00,,---,0.00,VWS V14.01,2013-04-17 00:52:00,
2013-04-16 18:00:00,63.1,35.0,30.05,NNW,333,2.0,3.0,35,0.00,,---,0.00,VWS V14.01,2013-04-17 01:00:00,
2013-04-16 18:12:00,62.7,36.7,30.05,NW,319,0.0,3.0,38,0.00,,---,0.00,VWS V14.01,2013-04-17 01:12:00,
2013-04-16 18:21:00,62.4,36.5,30.05,NNW,335,1.0,3.0,38,0.00,,---,0.00,VWS V14.01,2013-04-17 01:21:00,
2013-04-16 18:30:00,62.3,36.4,30.06,NW,319,3.0,3.0,38,0.00,,---,0.00,VWS V14.01,2013-04-17 01:30:00,
2013-04-16 18:41:00,62.1,36.8,30.06,NNW,333,2.0,3.0,39,0.00,,---,0.00,VWS V14.01,2013-04-17 01:41:00,
2013-04-16 18:51:00,61.7,37.1,30.07,NNW,340,1.0,2.0,40,0.00,,---,0.00,VWS V14.01,2013-04-17 01:51:00,
2013-04-16 19:00:00,61.5,36.9,30.07,NNW,333,0.0,4.0,40,0.00,,---,0.00,VWS V14.01,2013-04-17 02:00:00,
2013-04-16 19:11:00,61.2,37.3,30.08,NNW,338,2.0,2.0,41,0.00,,---,0.00,VWS V14.01,2013-04-17 02:11:00,
2013-04-16 19:21:00,60.6,36.8,30.08,NW,307,0.0,3.0,41,0.00,,---,0.00,VWS V14.01,2013-04-17 02:21:00,
2013-04-16 19:30:00,60.4,37.2,30.08,NW,325,1.0,1.0,42,0.00,,---,0.00,VWS V14.01,2013-04-17 02:30:00,
2013-04-16 19:41:00,60.0,37.4,30.09,NW,315,0.0,3.0,43,0.00,,---,0.00,VWS V14.01,2013-04-17 02:41:00,
2013-04-16 19:51:00,59.6,37.1,30.09,NW,325,0.0,1.0,43,0.00,,---,0.00,VWS V14.01,2013-04-17 02:51:00,
2013-04-16 20:00:00,59.3,37.4,30.09,North,356,0.0,1.0,44,0.00,,---,0.00,VWS V14.01,2013-04-17 03:00:00,
2013-04-16 20:11:00,58.6,38.4,30.10,NNW,335,0.0,0.0,47,0.00,,---,0.00,VWS V14.01,2013-04-17 03:11:00,
2013-04-16 20:21:00,57.7,38.7,30.10,NNW,334,0.0,1.0,49,0.00,,---,0.00,VWS V14.01,2013-04-17 03:21:00,
2013-04-16 20:30:00,57.0,38.5,30.11,NNW,335,0.0,0.0,50,0.00,,---,0.00,VWS V14.01,2013-04-17 03:30:00,
2013-04-16 20:41:00,56.1,39.2,30.12,NNW,335,0.0,1.0,53,0.00,,---,0.00,VWS V14.01,2013-04-17 03:41:00,
2013-04-16 20:51:00,55.5,39.6,30.12,WNW,300,0.0,1.0,55,0.00,,---,0.00,VWS V14.01,2013-04-17 03:51:00,
2013-04-16 21:00:00,55.1,39.2,30.13,WNW,300,0.0,0.0,55,0.00,,---,0.00,VWS V14.01,2013-04-17 04:00:00,
2013-04-16 21:01:00,55.0,39.6,30.13,WNW,300,0.0,0.0,56,0.00,,---,0.00,VWS V14.01,2013-04-17 04:01:00,
2013-04-16 21:11:00,54.4,39.0,30.13,WNW,300,0.0,0.0,56,0.00,,---,0.00,VWS V14.01,2013-04-17 04:11:00,
2013-04-16 21:15:00,54.3,39.4,30.14,WNW,300,0.0,0.0,57,0.00,,---,0.00,VWS V14.01,2013-04-17 04:15:00,
2013-04-16 21:21:00,54.0,39.1,30.14,WNW,300,0.0,0.0,57,0.00,,---,0.00,VWS V14.01,2013-04-17 04:21:00,
2013-04-16 21:30:00,53.7,40.1,30.14,WNW,300,0.0,0.0,60,0.00,,---,0.00,VWS V14.01,2013-04-17 04:30:00,
2013-04-16 21:31:00,53.6,39.6,30.15,WNW,300,0.0,0.0,59,0.00,,---,0.00,VWS V14.01,2013-04-17 04:31:00,
2013-04-16 21:41:00,53.3,39.8,30.15,WNW,300,0.0,0.0,60,0.00,,---,0.00,VWS V14.01,2013-04-17 04:41:00,
2013-04-16 21:51:00,53.0,40.7,30.16,WNW,303,0.0,0.0,63,0.00,,---,0.00,VWS V14.01,2013-04-17 04:51:00,
2013-04-16 22:00:00,52.4,41.0,30.16,NW,325,0.0,0.0,65,0.00,,---,0.00,VWS V14.01,2013-04-17 05:00:00,
2013-04-16 22:11:00,51.8,40.4,30.16,NW,325,0.0,0.0,65,0.00,,---,0.00,VWS V14.01,2013-04-17 05:11:00,
2013-04-16 22:21:00,51.5,41.3,30.17,NW,325,0.0,0.0,68,0.00,,---,0.00,VWS V14.01,2013-04-17 05:21:00,
2013-04-16 22:30:00,51.1,40.9,30.17,NNW,336,0.0,0.0,68,0.00,,---,0.00,VWS V14.01,2013-04-17 05:30:00,
2013-04-16 22:41:00,50.4,40.6,30.17,NNW,336,0.0,1.0,69,0.00,,---,0.00,VWS V14.01,2013-04-17 05:41:00,
2013-04-16 22:51:00,50.3,39.8,30.18,NNW,336,0.0,1.0,67,0.00,,---,0.00,VWS V14.01,2013-04-17 05:51:00,
2013-04-16 23:00:00,50.7,40.1,30.18,NNW,336,0.0,0.0,67,0.00,,---,0.00,VWS V14.01,2013-04-17 06:00:00,
2013-04-16 23:11:00,50.8,40.6,30.18,NNW,336,0.0,0.0,68,0.00,,---,0.00,VWS V14.01,2013-04-17 06:11:00,
2013-04-16 23:21:00,50.7,40.9,30.18,NNW,336,0.0,1.0,69,0.00,,---,0.00,VWS V14.01,2013-04-17 06:21:00,
2013-04-16 23:30:00,50.3,40.9,30.18,NNW,336,0.0,1.0,70,0.00,,---,0.00,VWS V14.01,2013-04-17 06:30:00,
2013-04-16 23:41:00,49.3,41.0,30.19,North,4,1.0,1.0,73,0.00,,---,0.00,VWS V14.01,2013-04-17 06:41:00,
2013-04-16 23:51:00,49.1,40.8,30.19,North,4,0.0,1.0,73,0.00,,---,0.00,VWS V14.01,2013-04-17 06:51:00,